Time;durP1;ratioP1;P1;durP2;ratioP2;P2;SDS_P1;SDS_P2;PMS_P1;PMS_P2;Temp;Humidity;BMP_temperature;BMP_pressure;BME280_temperature;BME280_humidity;BME280_pressure;Samples;Min_cycle;Max_cycle;Signal;HPM_P1;HPM_P2
2023/07/27 00:00:58;;;;;;;;;;;;;;;12.36;69.91;100659.59;108462;1261;75491;-87
2023/07/27 00:03:31;;;;;;;;;;;;;;;12.34;69.93;100663.42;108409;1262;125163;-85
2023/07/27 00:05:58;;;;;;;;;;;;;;;12.32;69.93;100665.49;108355;1262;71144;-86
2023/07/27 00:08:30;;;;;;;;;;;;;;;12.29;69.99;100671.98;108281;1262;125104;-86
2023/07/27 00:10:57;;;;;;;;;;;;;;;12.26;70.04;100672.26;108463;1262;59929;-86
2023/07/27 00:13:24;;;;;;;;;;;;;;;12.20;70.08;100662.86;108453;1260;75383;-86
2023/07/27 00:15:51;;;;;;;;;;;;;;;12.16;70.11;100664.02;108230;1262;125318;-85
2023/07/27 00:18:18;;;;;;;;;;;;;;;12.14;70.26;100664.51;108463;1261;73356;-86
2023/07/27 00:20:45;;;;;;;;;;;;;;;12.11;70.31;100660.40;108380;1261;125132;-85
2023/07/27 00:23:12;;;;;;;;;;;;;;;12.07;70.42;100662.10;108517;1261;60249;-85
2023/07/27 00:25:39;;;;;;;;;;;;;;;12.04;70.54;100661.86;108514;1261;76056;-85
2023/07/27 00:28:12;;;;;;;;;;;;;;;12.00;70.56;100661.98;108378;1262;124618;-84
2023/07/27 00:30:51;;;;;;;;;;;;;;;11.97;70.79;100661.92;108480;1261;71943;-84
2023/07/27 00:33:18;;;;;;;;;;;;;;;11.93;70.82;100660.45;108373;1262;124884;-84
2023/07/27 00:35:53;;;;;;;;;;;;;;;11.89;70.93;100655.77;108537;1262;60383;-85
2023/07/27 00:38:20;;;;;;;;;;;;;;;11.84;70.99;100656.21;108319;1262;125348;-85
2023/07/27 00:40:47;;;;;;;;;;;;;;;11.82;71.11;100658.98;108473;1260;65928;-88
2023/07/27 00:43:14;;;;;;;;;;;;;;;11.78;71.22;100659.42;108384;1262;70247;-85
2023/07/27 00:45:41;;;;;;;;;;;;;;;11.75;71.26;100660.60;108462;1262;125330;-85
2023/07/27 00:48:11;;;;;;;;;;;;;;;11.71;71.32;100655.08;108620;1261;60047;-84
2023/07/27 00:50:38;;;;;;;;;;;;;;;11.67;71.48;100652.73;108472;1262;124862;-85
2023/07/27 00:53:05;;;;;;;;;;;;;;;11.64;71.64;100649.69;108516;1261;68367;-85
2023/07/27 00:55:32;;;;;;;;;;;;;;;11.62;71.74;100652.10;108443;1260;71574;-86
2023/07/27 00:57:59;;;;;;;;;;;;;;;11.59;71.85;100652.57;108443;1262;125379;-86
2023/07/27 01:00:30;;;;;;;;;;;;;;;11.55;71.91;100654.96;108570;1261;59945;-88
2023/07/27 01:03:00;;;;;;;;;;;;;;;11.52;71.89;100653.48;108452;1265;124678;-89
2023/07/27 01:05:34;;;;;;;;;;;;;;;11.50;72.08;100653.45;108529;1265;66779;-88
2023/07/27 01:08:01;;;;;;;;;;;;;;;11.47;72.25;100652.52;108578;1262;72838;-88
2023/07/27 01:10:49;;;;;;;;;;;;;;;11.45;72.29;100655.63;108567;1261;60392;-89
2023/07/27 01:13:42;;;;;;;;;;;;;;;11.43;72.41;100661.41;108622;1261;60585;-86
2023/07/27 01:16:12;;;;;;;;;;;;;;;11.42;72.51;100663.83;108443;1262;126327;-85
2023/07/27 01:18:40;;;;;;;;;;;;;;;11.42;72.54;100665.06;108545;1261;67681;-85
2023/07/27 01:21:10;;;;;;;;;;;;;;;11.42;72.62;100666.13;108371;1266;125689;-85
2023/07/27 01:23:37;;;;;;;;;;;;;;;11.43;72.66;100662.61;108488;1262;59919;-85
2023/07/27 01:26:12;;;;;;;;;;;;;;;11.43;72.67;100658.58;108265;1262;125996;-85
2023/07/27 01:28:39;;;;;;;;;;;;;;;11.45;72.77;100659.50;108378;1262;75780;-85
2023/07/27 01:31:08;;;;;;;;;;;;;;;11.44;72.76;100657.20;108554;1264;65830;-85
2023/07/27 01:33:37;;;;;;;;;;;;;;;11.46;72.84;100654.77;108299;1262;125394;-85
2023/07/27 01:36:10;;;;;;;;;;;;;;;11.45;72.90;100651.95;108412;1262;60244;-84
2023/07/27 01:38:38;;;;;;;;;;;;;;;11.46;72.81;100648.45;108309;1262;127637;-84
2023/07/27 01:41:05;;;;;;;;;;;;;;;11.46;72.88;100649.50;108487;1262;75072;-84
2023/07/27 01:43:35;;;;;;;;;;;;;;;11.46;72.98;100642.83;108400;1262;67538;-85
2023/07/27 01:46:03;;;;;;;;;;;;;;;11.45;73.00;100640.72;108207;1262;127010;-85
2023/07/27 01:48:30;;;;;;;;;;;;;;;11.46;72.92;100640.72;108275;1261;60289;-86
2023/07/27 01:50:59;;;;;;;;;;;;;;;11.45;73.02;100641.41;108126;1267;127610;-86
2023/07/27 01:53:26;;;;;;;;;;;;;;;11.46;73.04;100641.26;108310;1262;74843;-85
2023/07/27 01:55:53;;;;;;;;;;;;;;;11.46;72.98;100641.60;108347;1262;67602;-86
2023/07/27 01:58:21;;;;;;;;;;;;;;;11.45;73.07;100644.41;108296;1262;125065;-86
2023/07/27 02:00:48;;;;;;;;;;;;;;;11.44;73.07;100642.45;108317;1267;60076;-86
2023/07/27 02:03:15;;;;;;;;;;;;;;;11.44;73.07;100643.67;108185;1262;128345;-86
2023/07/27 02:05:42;;;;;;;;;;;;;;;11.43;73.08;100645.55;108274;1266;75977;-87
2023/07/27 02:08:09;;;;;;;;;;;;;;;11.42;73.06;100648.02;108450;1262;125931;-87
2023/07/27 02:10:36;;;;;;;;;;;;;;;11.42;73.17;100647.50;108344;1262;73360;-87
2023/07/27 02:13:03;;;;;;;;;;;;;;;11.41;73.15;100646.94;108312;1267;60310;-87
2023/07/27 02:15:32;;;;;;;;;;;;;;;11.41;73.23;100648.18;108399;1264;125277;-86
2023/07/27 02:18:01;;;;;;;;;;;;;;;11.41;73.18;100652.21;108454;1268;74172;-86
2023/07/27 02:20:30;;;;;;;;;;;;;;;11.39;73.16;100650.25;108252;1261;126213;-87
2023/07/27 02:22:58;;;;;;;;;;;;;;;11.39;73.36;100649.02;108478;1262;73091;-87
2023/07/27 02:25:25;;;;;;;;;;;;;;;11.39;73.41;100647.60;108387;1262;60222;-86
2023/07/27 02:27:52;;;;;;;;;;;;;;;11.38;73.39;100643.55;108194;1262;126525;-87
2023/07/27 02:30:22;;;;;;;;;;;;;;;11.37;73.29;100647.05;108539;1261;77844;-87
2023/07/27 02:32:51;;;;;;;;;;;;;;;11.36;73.31;100653.70;108350;1262;125841;-87
2023/07/27 02:35:19;;;;;;;;;;;;;;;11.33;73.26;100649.59;108509;1262;72018;-87
2023/07/27 02:37:46;;;;;;;;;;;;;;;11.30;73.29;100652.00;108521;1262;60384;-87
2023/07/27 02:40:13;;;;;;;;;;;;;;;11.28;73.38;100653.37;108447;1262;125268;-86
2023/07/27 02:42:40;;;;;;;;;;;;;;;11.27;73.41;100650.52;108499;1262;74178;-87
2023/07/27 02:45:07;;;;;;;;;;;;;;;11.26;73.44;100652.79;108306;1262;125792;-87
2023/07/27 02:47:37;;;;;;;;;;;;;;;11.25;73.55;100649.80;108729;1261;70840;-87
2023/07/27 02:50:07;;;;;;;;;;;;;;;11.25;73.55;100651.20;108432;1262;126101;-86
2023/07/27 02:52:37;;;;;;;;;;;;;;;11.26;73.65;100652.27;108434;1267;60018;-86
2023/07/27 02:55:05;;;;;;;;;;;;;;;11.28;73.67;100653.02;108431;1261;74195;-85
2023/07/27 02:57:32;;;;;;;;;;;;;;;11.27;73.74;100651.59;108475;1265;125769;-85
2023/07/27 02:59:59;;;;;;;;;;;;;;;11.28;73.73;100650.23;108526;1261;73116;-85
2023/07/27 03:02:26;;;;;;;;;;;;;;;11.29;73.81;100651.98;108439;1262;124715;-85
2023/07/27 03:04:53;;;;;;;;;;;;;;;11.32;73.83;100653.27;108501;1263;60215;-84
2023/07/27 03:07:23;;;;;;;;;;;;;;;11.35;73.87;100655.98;108442;1260;76498;-85
2023/07/27 03:09:51;;;;;;;;;;;;;;;11.39;73.91;100661.33;108648;1264;126850;-85
2023/07/27 03:12:18;;;;;;;;;;;;;;;11.42;73.94;100660.48;108806;1261;72803;-85
2023/07/27 03:14:49;;;;;;;;;;;;;;;11.46;73.89;100661.45;108455;1267;126038;-83
2023/07/27 03:17:16;;;;;;;;;;;;;;;11.49;73.86;100664.86;108573;1262;60040;-85
2023/07/27 03:19:46;;;;;;;;;;;;;;;11.53;73.79;100667.39;108551;1266;75846;-85
2023/07/27 03:22:13;;;;;;;;;;;;;;;11.58;73.85;100669.96;108360;1260;126101;-85
2023/07/27 03:24:41;;;;;;;;;;;;;;;11.64;73.90;100671.98;108316;1262;71455;-84
2023/07/27 03:27:15;;;;;;;;;;;;;;;11.72;73.81;100671.79;108335;1264;125794;-85
2023/07/27 03:29:42;;;;;;;;;;;;;;;11.80;73.88;100671.41;108394;1269;60481;-85
2023/07/27 03:32:09;;;;;;;;;;;;;;;11.88;73.87;100670.88;108395;1262;124971;-84
2023/07/27 03:34:36;;;;;;;;;;;;;;;11.98;73.91;100666.16;108373;1262;66187;-84
2023/07/27 03:37:04;;;;;;;;;;;;;;;12.08;73.64;100667.57;108464;1261;73144;-85
2023/07/27 03:39:34;;;;;;;;;;;;;;;12.16;73.64;100665.94;108291;1262;125144;-85
2023/07/27 03:42:04;;;;;;;;;;;;;;;12.29;73.77;100673.38;108210;1261;60997;-85
2023/07/27 03:44:31;;;;;;;;;;;;;;;12.66;74.42;100674.84;108419;1264;125083;-85
2023/07/27 03:46:58;;;;;;;;;;;;;;;13.21;74.39;100675.27;108431;1262;66166;-85
2023/07/27 03:49:25;;;;;;;;;;;;;;;14.01;74.87;100669.31;108696;1262;72496;-86
2023/07/27 03:51:52;;;;;;;;;;;;;;;15.36;75.42;100671.13;108795;1262;124012;-85
2023/07/27 03:54:21;;;;;;;;;;;;;;;17.10;74.23;100673.39;108907;1262;60018;-85
2023/07/27 03:56:48;;;;;;;;;;;;;;;18.79;72.34;100670.93;108865;1261;125686;-84
2023/07/27 03:59:22;;;;;;;;;;;;;;;20.31;70.22;100662.92;109028;1261;65475;-85
2023/07/27 04:01:49;;;;;;;;;;;;;;;21.85;67.94;100658.52;108979;1265;71222;-85
2023/07/27 04:04:25;;;;;;;;;;;;;;;23.14;65.49;100653.65;108795;1260;123471;-85
2023/07/27 04:06:54;;;;;;;;;;;;;;;24.39;63.34;100648.04;108688;1261;60300;-86
2023/07/27 04:09:21;;;;;;;;;;;;;;;25.63;61.44;100641.76;108564;1263;124939;-85
2023/07/27 04:11:49;;;;;;;;;;;;;;;26.74;59.23;100640.98;108606;1262;65702;-84
2023/07/27 04:14:16;;;;;;;;;;;;;;;27.24;56.11;100649.77;108485;1265;125797;-85
2023/07/27 04:16:43;;;;;;;;;;;;;;;26.36;53.10;100655.00;108521;1264;60154;-85
2023/07/27 04:19:10;;;;;;;;;;;;;;;24.69;51.97;100659.02;108431;1262;61344;-85
2023/07/27 04:21:37;;;;;;;;;;;;;;;23.24;52.04;100659.98;108317;1261;124858;-85
2023/07/27 04:24:04;;;;;;;;;;;;;;;22.07;52.62;100663.40;108495;1264;67313;-85
2023/07/27 04:26:31;;;;;;;;;;;;;;;21.17;53.22;100666.77;108504;1264;125775;-85
2023/07/27 04:28:58;;;;;;;;;;;;;;;21.05;54.62;100668.41;108417;1267;60644;-84
2023/07/27 04:31:25;;;;;;;;;;;;;;;21.01;54.12;100661.55;108449;1262;60532;-86
2023/07/27 04:33:52;;;;;;;;;;;;;;;20.63;54.13;100658.67;108378;1274;126006;-85
2023/07/27 04:36:20;;;;;;;;;;;;;;;20.20;54.18;100662.41;108440;1266;67629;-85
2023/07/27 04:38:47;;;;;;;;;;;;;;;19.68;54.48;100660.15;108356;1266;124798;-86
2023/07/27 04:41:14;;;;;;;;;;;;;;;19.27;54.96;100658.89;108394;1267;60183;-85
2023/07/27 04:43:41;;;;;;;;;;;;;;;19.03;55.50;100658.29;108559;1265;60686;-86
2023/07/27 04:46:08;;;;;;;;;;;;;;;19.55;56.72;100659.95;108343;1267;126075;-85
2023/07/27 04:48:35;;;;;;;;;;;;;;;19.83;55.86;100656.41;108399;1267;67531;-85
2023/07/27 04:51:02;;;;;;;;;;;;;;;20.01;55.94;100657.38;108365;1261;124670;-86
2023/07/27 04:53:29;;;;;;;;;;;;;;;20.06;55.64;100654.98;108371;1264;60694;-86
2023/07/27 04:55:56;;;;;;;;;;;;;;;20.21;55.50;100652.07;108443;1264;60022;-86
2023/07/27 04:58:23;;;;;;;;;;;;;;;20.13;55.10;100653.80;108338;1261;124752;-86
2023/07/27 05:00:53;;;;;;;;;;;;;;;20.68;56.51;100654.09;108374;1267;66110;-86
2023/07/27 05:03:21;;;;;;;;;;;;;;;23.09;57.16;100643.68;108163;1260;124991;-85
2023/07/27 05:05:51;;;;;;;;;;;;;;;25.65;55.26;100641.44;108342;1261;60425;-86
2023/07/27 05:08:27;;;;;;;;;;;;;;;28.00;52.89;100642.34;108307;1267;125134;-86
2023/07/27 05:10:54;;;;;;;;;;;;;;;29.83;50.63;100641.96;108504;1260;76038;-87
2023/07/27 05:13:24;;;;;;;;;;;;;;;31.20;48.48;100642.34;108583;1261;60087;-87
2023/07/27 05:15:51;;;;;;;;;;;;;;;32.44;46.58;100642.09;108244;1266;125452;-87
2023/07/27 05:18:35;;;;;;;;;;;;;;;33.53;45.01;100640.59;108448;1266;60213;-86
2023/07/27 05:21:14;;;;;;;;;;;;;;;34.71;43.38;100642.84;108300;1261;125081;-86
2023/07/27 05:23:47;;;;;;;;;;;;;;;35.53;41.83;100644.80;108490;1261;67608;-87
2023/07/27 05:26:16;;;;;;;;;;;;;;;35.99;40.65;100647.58;108447;1261;125105;-87
2023/07/27 05:28:53;;;;;;;;;;;;;;;36.56;39.58;100643.20;108548;1264;73272;-86
2023/07/27 05:31:23;;;;;;;;;;;;;;;36.99;38.47;100640.89;108310;1262;60496;-87
2023/07/27 05:33:50;;;;;;;;;;;;;;;37.47;37.60;100640.48;108490;1261;124356;-87
2023/07/27 05:36:59;;;;;;;;;;;;;;;37.85;36.50;100641.28;108748;1261;66956;-86
2023/07/27 05:39:28;;;;;;;;;;;;;;;38.26;35.65;100644.61;107805;1272;125673;-86
2023/07/27 05:42:00;;;;;;;;;;;;;;;38.57;34.85;100644.51;107736;1276;63899;-86
2023/07/27 05:44:30;;;;;;;;;;;;;;;37.96;33.47;100644.60;107886;1263;125319;-86
2023/07/27 05:46:59;;;;;;;;;;;;;;;35.79;33.02;100648.52;108563;1266;60181;-86
2023/07/27 05:49:26;;;;;;;;;;;;;;;33.61;33.48;100646.48;108264;1264;68027;-85
2023/07/27 05:51:55;;;;;;;;;;;;;;;31.73;34.37;100649.05;108270;1268;124411;-85
2023/07/27 05:54:22;;;;;;;;;;;;;;;30.12;35.22;100645.55;108387;1262;62954;-85
2023/07/27 05:56:49;;;;;;;;;;;;;;;28.73;36.21;100650.80;108368;1264;125430;-87
2023/07/27 05:59:16;;;;;;;;;;;;;;;27.55;37.20;100651.73;108449;1261;60427;-87
2023/07/27 06:01:43;;;;;;;;;;;;;;;26.69;38.13;100654.88;108325;1269;74225;-87
2023/07/27 06:04:11;;;;;;;;;;;;;;;25.96;38.96;100658.84;108213;1264;124901;-88
2023/07/27 06:06:38;;;;;;;;;;;;;;;25.31;39.64;100657.89;108254;1267;73141;-88
2023/07/27 06:12:58;;;;;;;;;;;;;;;24.35;41.45;100656.23;107532;1270;61252;-85
2023/07/27 06:15:52;;;;;;;;;;;;;;;24.08;42.26;100655.15;107337;1273;125385;-85
2023/07/27 06:18:41;;;;;;;;;;;;;;;23.80;42.93;100642.95;107307;1277;67772;-85
2023/07/27 06:21:21;;;;;;;;;;;;;;;23.49;43.38;100643.71;107073;1286;124124;-86
2023/07/27 06:23:52;;;;;;;;;;;;;;;23.08;43.66;100645.08;107499;1270;60335;-87
2023/07/27 06:26:19;;;;;;;;;;;;;;;22.74;44.05;100649.03;107599;1270;125519;-86
2023/07/27 06:28:49;;;;;;;;;;;;;;;22.36;44.24;100647.86;107833;1270;76142;-87
2023/07/27 06:31:18;;;;;;;;;;;;;;;22.01;44.69;100648.52;107865;1270;67084;-90
2023/07/27 06:33:50;;;;;;;;;;;;;;;21.74;45.12;100646.65;107693;1270;125423;-86
2023/07/27 06:36:17;;;;;;;;;;;;;;;21.50;45.76;100646.11;107770;1275;60152;-86
2023/07/27 06:38:44;;;;;;;;;;;;;;;21.36;46.18;100646.92;107591;1271;125502;-85
2023/07/27 06:41:13;;;;;;;;;;;;;;;21.20;46.63;100644.40;107621;1272;74103;-84
2023/07/27 06:43:43;;;;;;;;;;;;;;;21.11;46.76;100650.48;107711;1273;67835;-84
2023/07/27 06:46:14;;;;;;;;;;;;;;;20.95;46.61;100652.92;107575;1270;124966;-83
2023/07/27 06:48:46;;;;;;;;;;;;;;;20.79;46.56;100648.39;108067;1260;60422;-83
2023/07/27 06:51:19;;;;;;;;;;;;;;;20.66;46.65;100643.66;108477;1262;124443;-84
2023/07/27 06:53:54;;;;;;;;;;;;;;;20.54;46.88;100639.55;108571;1264;75913;-86
2023/07/27 06:56:25;;;;;;;;;;;;;;;20.50;46.99;100636.79;108382;1264;125066;-86
2023/07/27 06:58:55;;;;;;;;;;;;;;;20.47;47.32;100633.82;108528;1264;73825;-86
2023/07/27 07:01:25;;;;;;;;;;;;;;;20.44;47.36;100631.19;108536;1264;60215;-86
2023/07/27 07:03:52;;;;;;;;;;;;;;;20.37;47.47;100629.18;108475;1260;126658;-83
2023/07/27 07:06:19;;;;;;;;;;;;;;;20.35;47.93;100628.32;108609;1260;74124;-84
2023/07/27 07:08:46;;;;;;;;;;;;;;;20.34;48.06;100627.60;108366;1262;125337;-83
2023/07/27 07:11:13;;;;;;;;;;;;;;;20.34;48.11;100628.69;108598;1261;71208;-82
2023/07/27 07:13:40;;;;;;;;;;;;;;;20.36;48.16;100627.23;108485;1264;59861;-84
2023/07/27 07:16:07;;;;;;;;;;;;;;;20.38;48.13;100628.80;108340;1264;127041;-84
2023/07/27 07:18:34;;;;;;;;;;;;;;;20.37;48.15;100626.66;108588;1263;76144;-83
2023/07/27 07:21:01;;;;;;;;;;;;;;;20.44;48.28;100628.70;108431;1262;125088;-83
2023/07/27 07:23:28;;;;;;;;;;;;;;;20.58;48.06;100629.17;108507;1261;72704;-85
2023/07/27 07:25:55;;;;;;;;;;;;;;;20.70;48.02;100629.86;108530;1264;60182;-84
2023/07/27 07:28:23;;;;;;;;;;;;;;;20.78;47.70;100626.49;108389;1261;124463;-84
2023/07/27 07:30:50;;;;;;;;;;;;;;;20.87;47.70;100627.57;108536;1264;77089;-87
2023/07/27 07:33:17;;;;;;;;;;;;;;;20.92;47.26;100623.02;108490;1261;124973;-90
2023/07/27 07:35:43;;;;;;;;;;;;;;;20.87;47.33;100622.05;108513;1263;71593;-92
2023/07/27 07:38:10;;;;;;;;;;;;;;;20.81;47.49;100626.27;108567;1263;60690;-89
2023/07/27 07:40:37;;;;;;;;;;;;;;;20.78;47.61;100621.69;108487;1263;60389;-89
2023/07/27 07:43:05;;;;;;;;;;;;;;;20.82;47.74;100621.43;108432;1264;75503;-90
2023/07/27 07:45:33;;;;;;;;;;;;;;;20.88;47.72;100617.73;108301;1261;125388;-89
2023/07/27 07:48:00;;;;;;;;;;;;;;;21.00;47.55;100615.73;108539;1261;73449;-89
2023/07/27 07:50:27;;;;;;;;;;;;;;;21.00;47.24;100616.63;108420;1264;124896;-88
2023/07/27 07:52:53;;;;;;;;;;;;;;;20.95;47.38;100613.85;108476;1266;59930;-89
2023/07/27 07:55:20;;;;;;;;;;;;;;;20.93;47.28;100616.58;108612;1277;73948;-90
2023/07/27 07:57:47;;;;;;;;;;;;;;;20.92;47.19;100619.09;108633;1263;124005;-88
2023/07/27 08:00:15;;;;;;;;;;;;;;;20.93;47.18;100614.61;108702;1261;73809;-87
2023/07/27 08:02:42;;;;;;;;;;;;;;;20.91;46.91;100614.12;108517;1260;125325;-88
2023/07/27 08:05:09;;;;;;;;;;;;;;;20.84;47.01;100609.98;108568;1260;60411;-87
2023/07/27 08:07:36;;;;;;;;;;;;;;;20.82;46.85;100608.05;108489;1260;74962;-89
2023/07/27 08:10:04;;;;;;;;;;;;;;;20.82;46.75;100611.27;108494;1260;125031;-90
2023/07/27 08:12:31;;;;;;;;;;;;;;;20.85;46.86;100609.06;108544;1260;72590;-90
2023/07/27 08:14:58;;;;;;;;;;;;;;;20.91;46.78;100609.66;108473;1260;124900;-89
2023/07/27 08:17:27;;;;;;;;;;;;;;;21.00;46.77;100609.48;108532;1260;59960;-89
2023/07/27 08:19:54;;;;;;;;;;;;;;;21.11;46.64;100606.21;108511;1262;74435;-88
2023/07/27 08:22:22;;;;;;;;;;;;;;;21.21;46.28;100606.20;108409;1260;125216;-88
2023/07/27 08:24:49;;;;;;;;;;;;;;;21.26;45.89;100602.52;108713;1260;72722;-89
2023/07/27 08:27:18;;;;;;;;;;;;;;;21.26;45.97;100601.98;108741;1262;123803;-87
2023/07/27 08:29:45;;;;;;;;;;;;;;;21.23;45.95;100593.65;108927;1260;59440;-89
2023/07/27 08:32:12;;;;;;;;;;;;;;;21.25;45.95;100594.70;108926;1260;74223;-88
2023/07/27 08:34:39;;;;;;;;;;;;;;;21.24;45.55;100590.42;108951;1260;66442;-89
2023/07/27 08:37:06;;;;;;;;;;;;;;;21.23;45.33;100588.30;108823;1260;72134;-88
2023/07/27 08:39:33;;;;;;;;;;;;;;;21.24;45.33;100589.54;108463;1261;124483;-87
2023/07/27 08:42:00;;;;;;;;;;;;;;;21.26;45.00;100585.56;108453;1260;60671;-86
2023/07/27 08:44:27;;;;;;;;;;;;;;;21.27;44.84;100585.54;108473;1260;125076;-89
2023/07/27 08:47:34;;;;;;;;;;;;;;;;;;;;;
2023/07/27 08:53:39;;;;;;;;;;;;;;;21.50;44.25;100575.06;108214;1267;59928;-88
2023/07/27 08:56:28;;;;;;;;;;;;;;;21.51;43.86;100583.06;108117;1260;125205;-87
2023/07/27 09:02:32;;;;;;;;;;;;;;;21.51;42.80;100585.21;108624;1261;67270;-87
2023/07/27 09:05:15;;;;;;;;;;;;;;;21.59;42.98;100582.71;108362;1262;74032;-89
2023/07/27 09:08:16;;;;;;;;;;;;;;;21.77;42.71;100578.89;108512;1260;60204;-90
2023/07/27 09:10:46;;;;;;;;;;;;;;;22.00;42.14;100582.44;108499;1260;124716;-91
2023/07/27 09:13:16;;;;;;;;;;;;;;;22.17;42.01;100586.11;108570;1261;75546;-90
2023/07/27 09:15:44;;;;;;;;;;;;;;;22.36;42.02;100579.06;108535;1260;124508;-91
2023/07/27 09:18:14;;;;;;;;;;;;;;;22.62;42.16;100578.71;108596;1260;72665;-92
2023/07/27 09:20:42;;;;;;;;;;;;;;;22.87;41.79;100576.57;108400;1261;125265;-90
2023/07/27 09:23:17;;;;;;;;;;;;;;;23.10;41.34;100577.91;108411;1260;60477;-91
2023/07/27 09:25:54;;;;;;;;;;;;;;;23.33;40.97;100580.09;108435;1267;77380;-91
2023/07/27 09:28:27;;;;;;;;;;;;;;;23.58;40.64;100578.61;108518;1260;125111;-91
2023/07/27 09:31:02;;;;;;;;;;;;;;;23.81;40.09;100579.33;108474;1262;72739;-91
2023/07/27 09:33:33;;;;;;;;;;;;;;;23.99;39.95;100576.76;108533;1261;124400;-93
2023/07/27 09:36:03;;;;;;;;;;;;;;;24.20;39.90;100581.23;108144;1267;61452;-90
2023/07/27 09:38:30;;;;;;;;;;;;;;;24.28;39.09;100578.27;107987;1265;125378;-91
2023/07/27 09:41:12;;;;;;;;;;;;;;;24.23;39.16;100576.65;107985;1267;66480;-89
2023/07/27 09:43:40;;;;;;;;;;;;;;;24.21;38.96;100572.80;108440;1265;72612;-90
2023/07/27 09:46:13;;;;;;;;;;;;;;;24.34;38.91;100571.61;108222;1266;123966;-89
2023/07/27 09:49:15;;;;;;;;;;;;;;;24.44;38.76;100575.20;108032;1270;60312;-89
2023/07/27 09:51:55;;;;;;;;;;;;;;;24.49;38.85;100574.73;107473;1273;124639;-89
2023/07/27 09:54:29;;;;;;;;;;;;;;;24.53;38.44;100575.13;108022;1266;67694;-90
2023/07/27 09:57:00;;;;;;;;;;;;;;;24.51;38.39;100574.98;107953;1272;125460;-90
2023/07/27 09:59:38;;;;;;;;;;;;;;;24.35;38.05;100578.41;108140;1267;60433;-90
2023/07/27 10:02:10;;;;;;;;;;;;;;;24.17;38.12;100575.79;108093;1267;61473;-89
2023/07/27 10:04:37;;;;;;;;;;;;;;;23.97;37.99;100573.60;107999;1267;125158;-90
2023/07/27 10:07:16;;;;;;;;;;;;;;;23.85;38.23;100573.79;108083;1269;66311;-90
2023/07/27 10:09:44;;;;;;;;;;;;;;;23.87;38.17;100569.99;108024;1267;124823;-90
2023/07/27 10:12:34;;;;;;;;;;;;;;;23.76;38.04;100569.63;108065;1267;60144;-89
2023/07/27 10:15:18;;;;;;;;;;;;;;;23.71;38.34;100570.66;108147;1265;125299;-90
2023/07/27 10:18:05;;;;;;;;;;;;;;;23.79;38.72;100565.23;108288;1268;76173;-88
2023/07/27 10:20:33;;;;;;;;;;;;;;;23.97;38.79;100562.68;108380;1267;67162;-89
2023/07/27 10:23:26;;;;;;;;;;;;;;;24.01;38.34;100558.77;107983;1266;71593;-88
2023/07/27 10:26:02;;;;;;;;;;;;;;;23.96;38.20;100558.77;107431;1274;60551;-89
2023/07/27 10:28:48;;;;;;;;;;;;;;;;;;;;;
2023/07/27 10:31:23;;;;;;;;;;;;;;;23.97;37.83;100561.94;108083;1270;75824;-90
2023/07/27 10:33:54;;;;;;;;;;;;;;;23.74;37.87;100558.92;107782;1267;124475;-89
2023/07/27 10:37:18;;;;;;;;;;;;;;;23.58;38.00;100559.95;107851;1269;73095;-90
2023/07/27 10:39:56;;;;;;;;;;;;;;;23.56;38.26;100560.39;107846;1272;125476;-89
2023/07/27 10:42:35;;;;;;;;;;;;;;;23.64;38.22;100560.31;107983;1268;60048;-90
2023/07/27 10:45:04;;;;;;;;;;;;;;;23.76;38.42;100566.02;107941;1270;125347;-89
2023/07/27 10:47:32;;;;;;;;;;;;;;;23.90;38.48;100558.96;107981;1270;67073;-90
2023/07/27 10:49:59;;;;;;;;;;;;;;;24.04;38.33;100558.86;107702;1268;278963;-90
2023/07/27 10:52:30;;;;;;;;;;;;;;;24.13;38.01;100557.46;107896;1268;125585;-90
2023/07/27 10:54:59;;;;;;;;;;;;;;;24.17;37.86;100555.20;107991;1268;60379;-92
2023/07/27 10:57:28;;;;;;;;;;;;;;;24.19;37.81;100552.95;107904;1268;125409;-89
2023/07/27 10:59:55;;;;;;;;;;;;;;;24.24;37.90;100551.70;108082;1268;65111;-88
2023/07/27 11:02:24;;;;;;;;;;;;;;;24.19;37.56;100550.98;108104;1267;71320;-88
2023/07/27 11:04:51;;;;;;;;;;;;;;;24.05;37.66;100547.16;108294;1262;124855;-88
2023/07/27 11:07:26;;;;;;;;;;;;;;;23.82;37.23;100539.52;108471;1260;61589;-88
2023/07/27 11:10:03;;;;;;;;;;;;;;;23.49;37.26;100538.21;108324;1264;125047;-90
2023/07/27 11:12:30;;;;;;;;;;;;;;;23.32;37.52;100540.55;108481;1264;67137;-91
2023/07/27 11:15:20;;;;;;;;;;;;;;;23.28;37.91;100543.72;108253;1261;124761;-91
2023/07/27 11:17:53;;;;;;;;;;;;;;;23.26;38.01;100547.91;108408;1262;60209;-91
2023/07/27 11:20:25;;;;;;;;;;;;;;;23.25;37.67;100548.08;108335;1260;60263;-89
2023/07/27 11:23:07;;;;;;;;;;;;;;;23.20;37.72;100542.16;108343;1262;125164;-90
2023/07/27 11:25:37;;;;;;;;;;;;;;;23.17;37.76;100539.92;108415;1262;65578;-90
2023/07/27 11:28:10;;;;;;;;;;;;;;;23.22;38.15;100536.55;108266;1262;124759;-90
2023/07/27 11:30:37;;;;;;;;;;;;;;;23.36;38.20;100519.65;108483;1262;60054;-91
2023/07/27 11:33:28;;;;;;;;;;;;;;;23.46;37.98;100535.27;108485;1261;124707;-90
2023/07/27 11:36:00;;;;;;;;;;;;;;;23.60;37.69;100527.66;108467;1265;74310;-90
2023/07/27 11:38:28;;;;;;;;;;;;;;;23.90;37.84;100526.14;108434;1261;66364;-90
2023/07/27 11:41:04;;;;;;;;;;;;;;;24.23;37.86;100525.22;108073;1264;124626;-91
2023/07/27 11:43:38;;;;;;;;;;;;;;;24.45;37.75;100522.64;108276;1261;60484;-91
2023/07/27 11:46:08;;;;;;;;;;;;;;;24.48;37.35;100520.17;108335;1262;127446;-91
2023/07/27 11:48:46;;;;;;;;;;;;;;;;;;;;;
2023/07/27 11:51:27;;;;;;;;;;;;;;;24.24;37.66;100511.72;108266;1266;125354;-90
2023/07/27 11:53:58;;;;;;;;;;;;;;;24.13;37.35;100513.55;108391;1262;72627;-89
2023/07/27 11:56:26;;;;;;;;;;;;;;;24.02;37.35;100509.27;108366;1260;60044;-90
2023/07/27 11:59:03;;;;;;;;;;;;;;;23.96;37.18;100512.16;108330;1264;124557;-90
2023/07/27 12:01:37;;;;;;;;;;;;;;;23.91;37.08;100508.56;108427;1260;76060;-90
2023/07/27 12:04:08;;;;;;;;;;;;;;;23.96;37.15;100513.05;108362;1263;125720;-90
2023/07/27 12:06:38;;;;;;;;;;;;;;;23.99;37.22;100519.92;108472;1262;73223;-90
2023/07/27 12:09:07;;;;;;;;;;;;;;;23.90;36.90;100514.50;108382;1262;124750;-90
2023/07/27 12:11:49;;;;;;;;;;;;;;;23.74;37.24;100516.11;108470;1260;60343;-90
2023/07/27 12:14:18;;;;;;;;;;;;;;;23.69;37.51;100509.27;108438;1260;77902;-90
2023/07/27 12:16:48;;;;;;;;;;;;;;;23.73;37.56;100504.49;108434;1262;124534;-90
2023/07/27 12:19:15;;;;;;;;;;;;;;;23.75;37.65;100499.04;108460;1260;73707;-90
2023/07/27 12:21:50;;;;;;;;;;;;;;;23.70;37.49;100495.62;108369;1264;124846;-90
2023/07/27 12:24:17;;;;;;;;;;;;;;;23.60;37.43;100497.91;108431;1269;60699;-90
2023/07/27 12:26:47;;;;;;;;;;;;;;;23.43;36.96;100490.23;108532;1262;75411;-91
2023/07/27 12:29:16;;;;;;;;;;;;;;;23.28;36.73;100489.64;108424;1260;124028;-90
2023/07/27 12:31:43;;;;;;;;;;;;;;;23.08;36.67;100483.48;108492;1260;72478;-88
2023/07/27 12:34:10;;;;;;;;;;;;;;;22.96;36.97;100483.62;108813;1260;124148;-90
2023/07/27 12:36:37;;;;;;;;;;;;;;;22.88;37.21;100477.41;108944;1260;59880;-89
2023/07/27 12:39:05;;;;;;;;;;;;;;;22.86;37.27;100472.29;108797;1260;124136;-90
2023/07/27 12:41:32;;;;;;;;;;;;;;;22.86;37.52;100463.88;108819;1260;66434;-93
2023/07/27 12:44:02;;;;;;;;;;;;;;;22.92;37.57;100460.84;108759;1260;72122;-90
2023/07/27 12:46:32;;;;;;;;;;;;;;;22.98;37.98;100462.45;108611;1259;125922;-91
2023/07/27 12:49:02;;;;;;;;;;;;;;;23.08;37.60;100460.58;108672;1260;59936;-90
2023/07/27 12:51:30;;;;;;;;;;;;;;;23.19;37.36;100457.36;108460;1261;124771;-90
2023/07/27 12:53:59;;;;;;;;;;;;;;;23.31;37.09;100458.05;108572;1260;66675;-90